Saint Mawgan, United Kingdom
Current Conditions -  °F | °C
As of 12:50 PM on Wednesday 26 Nov 2014 (Local Time) from EGHQ Reporting Station
Broken Clouds Broken Clouds  
Wind Chill: 45°   Ceiling: 2000
Heat Index: 45°   Visibility: 5mi
Dew Point: 45°   Wind: 1mph
Humidity: 100%   Direction: 320°NW
Pressure: 29.88"   Gusts: NA
Location:  50.45°N, 5°W
Report Text: EGHQ 261250Z 32001KT 8000 FEW012 BKN020 07/07 Q1012
Loading
Personal Weather Stations






























Interactive Weather Map New forecast layout! Learn more

10-Day Weather Forecast

Advertisements
Track Severe Weather on mobile